createdAt,value
2023-05-02T00:00:29.407Z,17.00
2023-05-02T00:02:56.349Z,17.00
2023-05-02T00:05:23.977Z,17.00
2023-05-02T00:07:51.799Z,17.00
2023-05-02T00:10:19.165Z,17.00
2023-05-02T00:12:45.894Z,17.00
2023-05-02T00:15:12.538Z,16.90
2023-05-02T00:17:43.623Z,16.90
2023-05-02T00:20:11.857Z,16.90
2023-05-02T00:22:39.243Z,16.90
2023-05-02T00:25:07.065Z,16.90
2023-05-02T00:27:33.874Z,16.90
2023-05-02T00:30:01.221Z,16.90
2023-05-02T00:32:28.702Z,16.90
2023-05-02T00:34:55.926Z,16.90
2023-05-02T00:37:26.605Z,17.00
2023-05-02T00:39:53.271Z,17.10
2023-05-02T00:42:19.906Z,17.00
2023-05-02T00:44:46.983Z,17.10
2023-05-02T00:47:15.399Z,17.10
2023-05-02T00:49:42.365Z,17.10
2023-05-02T00:52:09.378Z,17.20
2023-05-02T00:54:39.397Z,17.10
2023-05-02T00:57:06.865Z,17.10
2023-05-02T00:59:36.051Z,17.10
2023-05-02T01:02:35.234Z,17.00
2023-05-02T01:05:17.355Z,17.00
2023-05-02T01:08:10.722Z,16.90
2023-05-02T01:10:53.038Z,16.90
2023-05-02T01:13:24.255Z,16.90
2023-05-02T01:15:53.407Z,16.90
2023-05-02T01:18:27.999Z,16.90
2023-05-02T01:21:01.604Z,16.90
2023-05-02T01:23:41.139Z,16.90
2023-05-02T01:26:23.441Z,16.90
2023-05-02T01:29:02.586Z,16.90
2023-05-02T01:31:33.249Z,16.90
2023-05-02T01:34:02.417Z,16.90
2023-05-02T01:36:32.472Z,16.90
2023-05-02T01:39:01.589Z,16.90
2023-05-02T01:41:34.666Z,16.90
2023-05-02T01:44:03.354Z,16.90
2023-05-02T01:46:33.796Z,16.80
2023-05-02T01:49:03.422Z,16.90
2023-05-02T01:51:34.696Z,16.90
2023-05-02T01:54:07.757Z,16.90
2023-05-02T01:56:37.875Z,17.00
2023-05-02T01:59:19.594Z,16.90
2023-05-02T02:01:46.889Z,16.90
2023-05-02T02:04:16.060Z,16.90
2023-05-02T02:06:53.708Z,16.90
2023-05-02T02:09:20.774Z,16.90
2023-05-02T02:11:59.786Z,16.90
2023-05-02T02:14:33.629Z,16.90
2023-05-02T02:17:05.195Z,16.90
2023-05-02T02:19:33.439Z,16.90
2023-05-02T02:22:02.319Z,16.90
2023-05-02T02:24:30.028Z,17.00
2023-05-02T02:26:56.687Z,17.00
2023-05-02T02:29:23.573Z,17.00
2023-05-02T02:31:50.211Z,17.00
2023-05-02T02:34:16.923Z,17.00
2023-05-02T02:36:50.563Z,17.00
2023-05-02T02:39:36.080Z,17.00
2023-05-02T02:42:25.315Z,17.00
2023-05-02T02:45:15.920Z,17.00
2023-05-02T02:47:49.280Z,17.00
2023-05-02T02:50:25.220Z,17.00
2023-05-02T02:53:08.702Z,16.90
2023-05-02T02:55:47.133Z,16.90
2023-05-02T02:58:52.375Z,16.90
2023-05-02T03:01:21.961Z,16.90
2023-05-02T03:03:49.759Z,16.90
2023-05-02T03:06:17.891Z,16.80
2023-05-02T03:08:45.121Z,16.80
2023-05-02T03:11:11.973Z,16.80
2023-05-02T03:13:38.899Z,16.80
2023-05-02T03:16:11.171Z,16.80
2023-05-02T03:18:38.210Z,16.80
2023-05-02T03:21:04.921Z,16.70
2023-05-02T03:23:31.492Z,16.70
2023-05-02T03:25:58.184Z,16.60
2023-05-02T03:28:24.894Z,16.60
2023-05-02T03:30:51.529Z,16.50
2023-05-02T03:33:18.138Z,16.50
2023-05-02T03:35:44.836Z,16.50
2023-05-02T03:38:11.698Z,16.40
2023-05-02T03:40:38.379Z,16.40
2023-05-02T03:43:05.132Z,16.40
2023-05-02T03:45:32.006Z,16.30
2023-05-02T03:47:58.802Z,16.30
2023-05-02T03:50:25.802Z,16.30
2023-05-02T03:52:52.882Z,16.20
2023-05-02T03:55:19.646Z,16.20
2023-05-02T03:57:46.688Z,16.10
2023-05-02T04:00:13.831Z,16.10
2023-05-02T04:02:40.930Z,16.10
2023-05-02T04:05:08.707Z,16.10
2023-05-02T04:07:35.649Z,16.10
2023-05-02T04:10:02.566Z,16.00
2023-05-02T04:12:29.586Z,16.00
2023-05-02T04:14:56.250Z,16.00
2023-05-02T04:17:23.064Z,15.90
2023-05-02T04:19:49.707Z,15.90
2023-05-02T04:22:16.361Z,15.90
2023-05-02T04:24:43.022Z,15.90
2023-05-02T04:27:09.646Z,15.90
2023-05-02T04:29:36.738Z,15.90
2023-05-02T04:32:03.464Z,15.90
2023-05-02T04:34:30.324Z,15.90
2023-05-02T04:36:57.027Z,15.90
2023-05-02T04:39:23.623Z,16.00
2023-05-02T04:41:50.330Z,16.00
2023-05-02T04:44:17.079Z,15.90
2023-05-02T04:46:44.908Z,15.90
2023-05-02T04:49:12.201Z,15.90
2023-05-02T04:51:38.946Z,15.80
2023-05-02T04:54:05.728Z,15.80
2023-05-02T04:56:32.403Z,15.80
2023-05-02T04:58:59.213Z,15.70
2023-05-02T05:01:28.117Z,15.70
2023-05-02T05:03:57.213Z,15.70
2023-05-02T05:06:24.510Z,15.70
2023-05-02T05:08:57.580Z,15.70
2023-05-02T05:11:27.390Z,15.70
2023-05-02T05:13:54.230Z,15.80
2023-05-02T05:16:21.066Z,15.80
2023-05-02T05:18:49.519Z,15.90
2023-05-02T05:21:16.472Z,15.80
2023-05-02T05:23:46.148Z,15.90
2023-05-02T05:26:17.928Z,15.90
2023-05-02T05:28:45.010Z,16.00
2023-05-02T05:31:16.046Z,16.00
2023-05-02T05:33:44.282Z,16.00
2023-05-02T05:36:15.127Z,16.00
2023-05-02T05:38:41.873Z,16.00
2023-05-02T05:41:09.339Z,16.00
2023-05-02T05:43:38.011Z,16.00
2023-05-02T05:46:05.298Z,16.10
2023-05-02T05:48:31.944Z,16.00
2023-05-02T05:50:58.618Z,16.00
2023-05-02T05:53:25.728Z,16.00
2023-05-02T05:55:52.336Z,16.00
2023-05-02T05:58:19.189Z,16.00
2023-05-02T06:00:45.876Z,16.10
2023-05-02T06:03:12.665Z,16.10
2023-05-02T06:05:39.473Z,16.20
2023-05-02T06:08:06.182Z,16.20
2023-05-02T06:10:33.030Z,16.20
2023-05-02T06:12:59.808Z,16.30
2023-05-02T06:15:26.429Z,16.30
2023-05-02T06:17:53.175Z,16.40
2023-05-02T06:20:19.794Z,16.40
2023-05-02T06:22:46.545Z,16.40
2023-05-02T06:25:13.363Z,16.50
2023-05-02T06:27:40.082Z,16.50
2023-05-02T06:30:07.414Z,16.50
2023-05-02T06:32:34.093Z,16.60
2023-05-02T06:35:00.994Z,16.60
2023-05-02T06:37:27.676Z,16.60
2023-05-02T06:39:54.463Z,16.60
2023-05-02T06:42:21.183Z,16.60
2023-05-02T06:44:47.929Z,16.70
2023-05-02T06:47:14.692Z,16.80
2023-05-02T06:49:41.439Z,16.70
2023-05-02T06:52:08.185Z,16.80
2023-05-02T06:54:34.841Z,16.80
2023-05-02T06:57:02.205Z,16.80
2023-05-02T06:59:28.911Z,16.90
2023-05-02T07:01:55.525Z,16.90
2023-05-02T07:04:22.440Z,17.00
2023-05-02T07:06:49.143Z,17.00
2023-05-02T07:09:15.931Z,17.00
2023-05-02T07:11:42.604Z,17.00
2023-05-02T07:14:09.464Z,17.10
2023-05-02T07:16:36.275Z,17.20
2023-05-02T07:19:04.741Z,17.10
2023-05-02T07:21:32.404Z,17.10
2023-05-02T07:23:59.206Z,17.20
2023-05-02T07:26:27.747Z,17.10
2023-05-02T07:28:57.365Z,17.20
2023-05-02T07:31:24.006Z,17.20
2023-05-02T07:33:50.738Z,17.20
2023-05-02T07:36:18.159Z,17.20
2023-05-02T07:38:44.939Z,17.20
2023-05-02T07:41:13.751Z,17.20
2023-05-02T07:43:40.589Z,17.20
2023-05-02T07:46:07.335Z,17.30
2023-05-02T07:48:34.863Z,17.30
2023-05-02T07:51:11.380Z,17.40
2023-05-02T07:53:38.067Z,17.30
2023-05-02T07:56:06.961Z,17.20
2023-05-02T07:58:34.625Z,17.20
2023-05-02T08:01:01.283Z,17.20
2023-05-02T08:03:28.248Z,17.20
2023-05-02T08:05:55.140Z,17.10
2023-05-02T08:08:21.937Z,17.20
2023-05-02T08:10:50.417Z,17.20
2023-05-02T08:13:17.748Z,17.30
2023-05-02T08:15:44.706Z,17.30
2023-05-02T08:18:11.591Z,17.40
2023-05-02T08:20:38.327Z,17.40
2023-05-02T08:23:04.950Z,17.50
2023-05-02T08:25:31.665Z,17.60
2023-05-02T08:27:58.317Z,17.70
2023-05-02T08:30:24.914Z,17.80
2023-05-02T08:32:51.573Z,17.90
2023-05-02T08:35:18.377Z,18.00
2023-05-02T08:37:45.076Z,18.30
2023-05-02T08:40:12.812Z,18.40
2023-05-02T08:42:42.979Z,18.50
2023-05-02T08:45:12.278Z,18.60
2023-05-02T08:47:43.182Z,18.70
2023-05-02T08:50:11.118Z,18.70
2023-05-02T08:52:38.604Z,18.80
2023-05-02T08:55:07.520Z,18.80
2023-05-02T08:57:34.462Z,18.80
2023-05-02T09:00:01.332Z,18.80
2023-05-02T09:02:42.726Z,18.80
2023-05-02T09:05:12.058Z,18.90
2023-05-02T09:07:46.956Z,18.90
2023-05-02T09:10:14.445Z,18.90
2023-05-02T09:12:41.365Z,19.00
2023-05-02T09:15:17.718Z,18.90
2023-05-02T09:17:47.494Z,19.00
2023-05-02T09:20:16.133Z,19.00
2023-05-02T09:22:51.051Z,19.10
2023-05-02T09:25:19.427Z,19.30
2023-05-02T09:27:52.964Z,19.40
2023-05-02T09:30:20.761Z,19.50
2023-05-02T09:32:48.767Z,19.50
2023-05-02T09:35:23.560Z,19.60
2023-05-02T09:37:57.558Z,19.70
2023-05-02T09:40:25.223Z,19.80
2023-05-02T09:42:52.920Z,19.70
2023-05-02T09:45:24.878Z,19.70
2023-05-02T09:47:52.301Z,19.80
2023-05-02T09:50:36.603Z,19.90
2023-05-02T09:53:09.417Z,20.10
2023-05-02T09:55:36.559Z,20.20
2023-05-02T09:58:03.449Z,20.20
2023-05-02T10:00:44.221Z,20.30
2023-05-02T10:03:11.661Z,20.30
2023-05-02T10:05:39.770Z,20.30
2023-05-02T10:08:07.755Z,20.40
2023-05-02T10:10:38.354Z,20.20
2023-05-02T10:13:06.153Z,20.20
2023-05-02T10:15:33.875Z,20.20
2023-05-02T10:18:05.222Z,20.20
2023-05-02T10:20:37.088Z,20.20
2023-05-02T10:23:04.742Z,20.20
2023-05-02T10:25:33.321Z,20.20
2023-05-02T10:28:01.018Z,20.30
2023-05-02T10:30:29.177Z,20.40
2023-05-02T10:33:00.203Z,20.50
2023-05-02T10:35:27.273Z,20.60
2023-05-02T10:37:54.325Z,20.70
2023-05-02T10:40:21.001Z,20.70
2023-05-02T10:42:51.321Z,20.70
2023-05-02T10:45:30.923Z,20.80
2023-05-02T10:48:14.139Z,20.70
2023-05-02T10:50:52.958Z,20.80
2023-05-02T10:53:27.962Z,20.60
2023-05-02T10:56:18.120Z,20.60
2023-05-02T10:58:46.851Z,20.60
2023-05-02T11:01:29.004Z,20.50
2023-05-02T11:04:00.595Z,20.50
2023-05-02T11:06:29.920Z,20.50
2023-05-02T11:09:17.660Z,20.50
2023-05-02T11:11:45.637Z,20.40
2023-05-02T11:14:35.127Z,20.40
2023-05-02T11:17:01.790Z,20.40
2023-05-02T11:19:31.201Z,20.30
2023-05-02T11:22:20.132Z,20.30
2023-05-02T11:24:48.501Z,20.30
2023-05-02T11:27:41.329Z,20.40
2023-05-02T11:30:11.904Z,20.50
2023-05-02T11:32:48.805Z,20.80
2023-05-02T11:35:23.562Z,21.00
2023-05-02T11:38:00.794Z,21.30
2023-05-02T11:40:28.351Z,21.50
2023-05-02T11:42:56.129Z,21.70
2023-05-02T11:45:24.010Z,22.00
2023-05-02T11:47:51.590Z,22.10
2023-05-02T11:50:18.525Z,22.20
2023-05-02T11:52:46.144Z,22.20
2023-05-02T11:55:14.895Z,22.20
2023-05-02T11:57:43.013Z,22.30
2023-05-02T12:00:11.247Z,22.60
2023-05-02T12:02:43.274Z,22.70
2023-05-02T12:05:15.254Z,23.00
2023-05-02T12:07:47.348Z,23.10
2023-05-02T12:10:14.501Z,23.10
2023-05-02T12:12:44.616Z,23.20
2023-05-02T12:15:12.962Z,23.20
2023-05-02T12:17:41.958Z,23.30
2023-05-02T12:20:10.796Z,23.10
2023-05-02T12:22:37.917Z,22.90
2023-05-02T12:25:06.062Z,22.70
2023-05-02T12:27:35.972Z,22.60
2023-05-02T12:30:03.272Z,22.40
2023-05-02T12:32:32.346Z,22.30
2023-05-02T12:35:00.013Z,22.20
2023-05-02T12:37:27.533Z,22.20
2023-05-02T12:39:55.532Z,22.20
2023-05-02T12:42:23.787Z,22.40
2023-05-02T12:44:52.339Z,22.60
2023-05-02T12:47:20.207Z,22.80
2023-05-02T12:49:57.917Z,22.90
2023-05-02T12:52:48.086Z,22.90
2023-05-02T12:55:24.967Z,23.00
2023-05-02T12:58:01.046Z,22.90
2023-05-02T13:00:27.900Z,22.80
2023-05-02T13:02:54.673Z,22.70
2023-05-02T13:05:21.538Z,22.90
2023-05-02T13:07:48.208Z,23.20
2023-05-02T13:10:17.775Z,23.60
2023-05-02T13:12:47.989Z,23.90
2023-05-02T13:15:15.436Z,24.40
2023-05-02T13:17:42.404Z,24.80
2023-05-02T13:20:09.604Z,25.00
2023-05-02T13:22:37.494Z,25.20
2023-05-02T13:25:05.317Z,25.20
2023-05-02T13:27:34.085Z,25.00
2023-05-02T13:30:07.954Z,24.90
2023-05-02T13:32:35.977Z,24.80
2023-05-02T13:35:03.784Z,24.60
2023-05-02T13:37:30.631Z,24.40
2023-05-02T13:39:57.424Z,24.20
2023-05-02T13:42:24.185Z,23.90
2023-05-02T13:44:50.873Z,23.60
2023-05-02T13:47:17.447Z,23.40
2023-05-02T13:49:44.081Z,23.20
2023-05-02T13:52:10.807Z,23.00
2023-05-02T13:54:37.590Z,22.90
2023-05-02T13:57:05.520Z,22.70
2023-05-02T13:59:32.195Z,22.50
2023-05-02T14:01:59.014Z,22.30
2023-05-02T14:04:25.685Z,22.10
2023-05-02T14:06:52.600Z,21.90
2023-05-02T14:09:19.367Z,21.80
2023-05-02T14:11:47.297Z,21.70
2023-05-02T14:14:14.186Z,21.70
2023-05-02T14:16:41.098Z,21.80
2023-05-02T14:19:07.745Z,22.00
2023-05-02T14:21:34.734Z,22.20
2023-05-02T14:24:01.367Z,22.50
2023-05-02T14:26:28.029Z,22.60
2023-05-02T14:28:54.690Z,22.70
2023-05-02T14:31:21.427Z,22.90
2023-05-02T14:33:48.221Z,23.10
2023-05-02T14:36:14.859Z,23.20
2023-05-02T14:38:41.668Z,23.20
2023-05-02T14:41:08.454Z,23.10
2023-05-02T14:43:35.162Z,22.80
2023-05-02T14:46:02.696Z,22.60
2023-05-02T14:48:29.508Z,22.30
2023-05-02T14:50:57.552Z,22.10
2023-05-02T14:53:24.249Z,21.90
2023-05-02T14:55:50.966Z,21.60
2023-05-02T14:58:20.772Z,21.40
2023-05-02T15:00:48.140Z,21.20
2023-05-02T15:03:14.968Z,20.90
2023-05-02T15:05:41.954Z,20.70
2023-05-02T15:08:08.720Z,20.40
2023-05-02T15:10:39.256Z,20.20
2023-05-02T15:13:08.832Z,20.00
2023-05-02T15:15:36.060Z,19.90
2023-05-02T15:18:02.879Z,19.70
2023-05-02T15:20:29.676Z,19.60
2023-05-02T15:22:56.350Z,19.40
2023-05-02T15:25:22.962Z,19.20
2023-05-02T15:27:50.390Z,19.10
2023-05-02T15:30:18.101Z,19.00
2023-05-02T15:32:44.910Z,18.90
2023-05-02T15:35:11.743Z,18.80
2023-05-02T15:37:38.508Z,18.70
2023-05-02T15:40:06.812Z,18.60
2023-05-02T15:42:37.203Z,18.40
2023-05-02T15:45:06.719Z,18.30
2023-05-02T15:47:33.536Z,18.30
2023-05-02T15:50:00.802Z,18.20
2023-05-02T15:52:27.697Z,18.20
2023-05-02T15:54:56.005Z,18.10
2023-05-02T15:57:23.121Z,18.10
2023-05-02T15:59:50.206Z,18.10
2023-05-02T16:02:16.945Z,18.00
2023-05-02T16:04:43.631Z,18.00
2023-05-02T16:07:11.445Z,18.00
2023-05-02T16:09:39.826Z,18.00
2023-05-02T16:12:07.257Z,18.00
2023-05-02T16:14:34.806Z,18.00
2023-05-02T16:17:01.831Z,17.90
2023-05-02T16:19:28.607Z,17.80
2023-05-02T16:21:55.283Z,17.70
2023-05-02T16:24:21.958Z,17.70
2023-05-02T16:26:48.693Z,17.70
2023-05-02T16:29:15.723Z,17.70
2023-05-02T16:31:44.359Z,17.60
2023-05-02T16:34:11.425Z,17.70
2023-05-02T16:36:38.039Z,17.70
2023-05-02T16:39:04.728Z,17.70
2023-05-02T16:41:31.433Z,17.60
2023-05-02T16:43:58.039Z,17.60
2023-05-02T16:46:24.969Z,17.60
2023-05-02T16:48:51.603Z,17.60
2023-05-02T16:51:18.184Z,17.60
2023-05-02T16:53:46.170Z,17.50
2023-05-02T16:56:12.884Z,17.50
2023-05-02T16:58:40.204Z,17.50
2023-05-02T17:01:07.278Z,17.40
2023-05-02T17:03:34.304Z,17.40
2023-05-02T17:06:01.818Z,17.30
2023-05-02T17:08:28.791Z,17.30
2023-05-02T17:10:56.203Z,17.20
2023-05-02T17:13:23.036Z,17.20
2023-05-02T17:15:49.849Z,17.20
2023-05-02T17:18:16.619Z,17.20
2023-05-02T17:20:43.381Z,17.20
2023-05-02T17:23:10.403Z,17.10
2023-05-02T17:25:38.306Z,17.10
2023-05-02T17:28:05.055Z,17.10
2023-05-02T17:30:32.077Z,17.10
2023-05-02T17:32:58.817Z,17.00
2023-05-02T17:35:25.950Z,17.00
2023-05-02T17:37:52.772Z,17.00
2023-05-02T17:40:19.569Z,16.90
2023-05-02T17:42:46.698Z,16.80
2023-05-02T17:45:13.629Z,16.80
2023-05-02T17:47:40.339Z,16.80
2023-05-02T17:50:07.829Z,16.70
2023-05-02T17:52:35.590Z,16.70
2023-05-02T17:55:02.541Z,16.70
2023-05-02T17:57:29.252Z,16.60
2023-05-02T17:59:59.384Z,16.60
2023-05-02T18:02:27.553Z,16.60
2023-05-02T18:04:54.781Z,16.60
2023-05-02T18:07:23.955Z,16.60
2023-05-02T18:09:51.760Z,16.60
2023-05-02T18:12:19.272Z,16.50
2023-05-02T18:14:45.966Z,16.50
2023-05-02T18:17:12.802Z,16.40
2023-05-02T18:19:39.712Z,16.40
2023-05-02T18:22:07.200Z,16.30
2023-05-02T18:24:34.009Z,16.30
2023-05-02T18:27:00.784Z,16.30
2023-05-02T18:29:27.704Z,16.20
2023-05-02T18:31:54.915Z,16.20
2023-05-02T18:34:21.731Z,16.10
2023-05-02T18:36:48.450Z,16.20
2023-05-02T18:39:15.390Z,16.10
2023-05-02T18:41:42.232Z,16.10
2023-05-02T18:44:10.387Z,16.00
2023-05-02T18:46:37.796Z,16.00
2023-05-02T18:49:04.454Z,16.00
2023-05-02T18:51:31.399Z,15.90
2023-05-02T18:54:00.944Z,15.90
2023-05-02T18:56:28.443Z,15.90
2023-05-02T18:58:56.580Z,15.90
2023-05-02T19:01:24.079Z,15.90
2023-05-02T19:03:52.777Z,15.90
2023-05-02T19:06:20.549Z,15.80
2023-05-02T19:08:48.982Z,15.80
2023-05-02T19:11:15.710Z,15.80
2023-05-02T19:13:42.966Z,15.80
2023-05-02T19:16:11.823Z,15.70
2023-05-02T19:18:39.925Z,15.70
2023-05-02T19:21:14.310Z,15.70
2023-05-02T19:23:42.526Z,15.70
2023-05-02T19:26:17.274Z,15.60
2023-05-02T19:28:44.671Z,15.70
2023-05-02T19:31:15.542Z,15.60
2023-05-02T19:33:52.313Z,15.60
2023-05-02T19:36:20.097Z,15.60
2023-05-02T19:38:54.833Z,15.50
2023-05-02T19:41:23.844Z,15.50
2023-05-02T19:43:51.007Z,15.50
2023-05-02T19:46:18.404Z,15.40
2023-05-02T19:48:45.704Z,15.40
2023-05-02T19:51:12.648Z,15.40
2023-05-02T19:53:39.563Z,15.50
2023-05-02T19:56:09.647Z,15.40
2023-05-02T19:58:36.588Z,15.40
2023-05-02T20:01:03.677Z,15.40
2023-05-02T20:03:30.674Z,15.30
2023-05-02T20:05:58.724Z,15.30
2023-05-02T20:08:28.270Z,15.20
2023-05-02T20:10:55.935Z,15.10
2023-05-02T20:13:23.036Z,15.10
2023-05-02T20:15:51.074Z,15.00
2023-05-02T20:18:18.037Z,15.00
2023-05-02T20:20:45.875Z,14.90
2023-05-02T20:23:13.609Z,14.80
2023-05-02T20:25:41.234Z,14.70
2023-05-02T20:28:09.461Z,14.70
2023-05-02T20:30:36.374Z,14.70
2023-05-02T20:33:13.881Z,14.70
2023-05-02T20:35:42.100Z,14.60
2023-05-02T20:38:09.015Z,14.60
2023-05-02T20:40:40.459Z,14.50
2023-05-02T20:43:07.486Z,14.50
2023-05-02T20:45:34.683Z,14.50
2023-05-02T20:48:01.612Z,14.40
2023-05-02T20:50:28.762Z,14.40
2023-05-02T20:52:55.505Z,14.40
2023-05-02T20:55:23.071Z,14.40
2023-05-02T20:57:53.194Z,14.50
2023-05-02T21:00:22.528Z,14.50
2023-05-02T21:02:49.775Z,14.50
2023-05-02T21:05:16.928Z,14.60
2023-05-02T21:07:44.870Z,14.60
2023-05-02T21:10:11.791Z,14.70
2023-05-02T21:12:38.664Z,14.70
2023-05-02T21:15:07.213Z,14.70
2023-05-02T21:17:34.192Z,14.70
2023-05-02T21:20:01.228Z,14.80
2023-05-02T21:22:28.112Z,14.80
2023-05-02T21:24:54.710Z,14.90
2023-05-02T21:27:22.919Z,14.90
2023-05-02T21:29:52.681Z,14.90
2023-05-02T21:34:45.993Z,15.00
2023-05-02T21:37:12.652Z,15.00
2023-05-02T21:39:39.291Z,15.00
2023-05-02T21:42:06.180Z,15.00
2023-05-02T21:44:32.837Z,14.90
2023-05-02T21:46:59.472Z,15.00
2023-05-02T21:49:26.288Z,15.00
2023-05-02T21:51:53.006Z,15.10
2023-05-02T21:54:19.644Z,15.10
2023-05-02T21:56:46.395Z,15.10
2023-05-02T21:59:13.060Z,15.20
2023-05-02T22:01:39.797Z,15.20
2023-05-02T22:04:06.753Z,15.20
2023-05-02T22:06:33.673Z,15.30
2023-05-02T22:09:00.340Z,15.30
2023-05-02T22:11:28.526Z,15.40
2023-05-02T22:13:55.283Z,15.40
2023-05-02T22:16:22.083Z,15.40
2023-05-02T22:18:49.651Z,15.40
2023-05-02T22:21:16.564Z,15.30
2023-05-02T22:23:43.167Z,15.30
2023-05-02T22:26:09.800Z,15.20
2023-05-02T22:28:36.473Z,15.10
2023-05-02T22:31:03.342Z,15.00
2023-05-02T22:33:30.190Z,15.00
2023-05-02T22:35:56.984Z,14.90
2023-05-02T22:38:23.761Z,14.80
2023-05-02T22:40:50.449Z,14.80
2023-05-02T22:43:17.506Z,14.70
2023-05-02T22:45:44.120Z,14.70
2023-05-02T22:48:11.775Z,14.60
2023-05-02T22:50:38.717Z,14.60
2023-05-02T22:53:05.804Z,14.50
2023-05-02T22:55:32.420Z,14.50
2023-05-02T22:57:59.074Z,14.50
2023-05-02T23:00:25.712Z,14.50
2023-05-02T23:02:52.416Z,14.40
2023-05-02T23:05:19.504Z,14.40
2023-05-02T23:07:46.252Z,14.40
2023-05-02T23:10:12.870Z,14.40
2023-05-02T23:12:39.632Z,14.40
2023-05-02T23:15:07.245Z,14.40
2023-05-02T23:17:37.157Z,14.40
2023-05-02T23:20:05.265Z,14.40
2023-05-02T23:22:36.051Z,14.40
2023-05-02T23:25:03.173Z,14.40
2023-05-02T23:27:29.899Z,14.40
2023-05-02T23:29:56.556Z,14.30
2023-05-02T23:32:23.859Z,14.30
2023-05-02T23:34:50.549Z,14.30
2023-05-02T23:37:17.211Z,14.20
2023-05-02T23:39:43.897Z,14.30
2023-05-02T23:42:10.537Z,14.20
2023-05-02T23:44:37.160Z,14.30
2023-05-02T23:47:03.911Z,14.20
2023-05-02T23:49:30.776Z,14.20
2023-05-02T23:51:57.508Z,14.20
2023-05-02T23:54:24.367Z,14.20
2023-05-02T23:56:53.141Z,14.20
2023-05-02T23:59:19.801Z,14.10
